sensor_id;sensor_type;location;lat;lon;timestamp;P1;durP1;ratioP1;P2;durP2;ratioP2
1026;SDS011;502;48.746;9.214;2023-09-30T00:02:18;5.23;;;3.00;;
1026;SDS011;502;48.746;9.214;2023-09-30T00:04:45;3.27;;;2.53;;
1026;SDS011;502;48.746;9.214;2023-09-30T00:07:11;4.20;;;2.70;;
1026;SDS011;502;48.746;9.214;2023-09-30T00:09:39;6.03;;;3.17;;
1026;SDS011;502;48.746;9.214;2023-09-30T00:12:06;4.80;;;2.57;;
1026;SDS011;502;48.746;9.214;2023-09-30T00:14:33;3.77;;;2.97;;
1026;SDS011;502;48.746;9.214;2023-09-30T00:17:01;5.50;;;2.80;;
1026;SDS011;502;48.746;9.214;2023-09-30T00:19:28;3.20;;;2.40;;
1026;SDS011;502;48.746;9.214;2023-09-30T00:21:57;3.87;;;2.73;;
1026;SDS011;502;48.746;9.214;2023-09-30T00:24:23;4.60;;;2.67;;
1026;SDS011;502;48.746;9.214;2023-09-30T00:26:52;4.80;;;3.30;;
1026;SDS011;502;48.746;9.214;2023-09-30T00:29:19;3.37;;;2.33;;
1026;SDS011;502;48.746;9.214;2023-09-30T00:31:45;6.90;;;2.93;;
1026;SDS011;502;48.746;9.214;2023-09-30T00:34:12;6.57;;;3.37;;
1026;SDS011;502;48.746;9.214;2023-09-30T00:36:39;3.23;;;2.53;;
1026;SDS011;502;48.746;9.214;2023-09-30T00:39:06;3.43;;;2.40;;
1026;SDS011;502;48.746;9.214;2023-09-30T00:41:34;3.60;;;2.40;;
1026;SDS011;502;48.746;9.214;2023-09-30T00:44:02;3.90;;;2.80;;
1026;SDS011;502;48.746;9.214;2023-09-30T00:46:29;4.63;;;2.83;;
1026;SDS011;502;48.746;9.214;2023-09-30T00:48:58;4.80;;;2.63;;
1026;SDS011;502;48.746;9.214;2023-09-30T00:51:27;4.97;;;2.60;;
1026;SDS011;502;48.746;9.214;2023-09-30T00:53:55;4.70;;;2.57;;
1026;SDS011;502;48.746;9.214;2023-09-30T00:56:24;3.90;;;2.60;;
1026;SDS011;502;48.746;9.214;2023-09-30T00:58:52;4.50;;;2.40;;
1026;SDS011;502;48.746;9.214;2023-09-30T01:01:20;6.33;;;3.17;;
1026;SDS011;502;48.746;9.214;2023-09-30T01:03:47;5.87;;;3.07;;
1026;SDS011;502;48.746;9.214;2023-09-30T01:06:14;4.47;;;2.63;;
1026;SDS011;502;48.746;9.214;2023-09-30T01:08:41;2.90;;;2.47;;
1026;SDS011;502;48.746;9.214;2023-09-30T01:11:07;3.43;;;2.67;;
1026;SDS011;502;48.746;9.214;2023-09-30T01:13:36;3.80;;;3.17;;
1026;SDS011;502;48.746;9.214;2023-09-30T01:16:03;3.13;;;2.23;;
1026;SDS011;502;48.746;9.214;2023-09-30T01:18:32;5.53;;;2.67;;
1026;SDS011;502;48.746;9.214;2023-09-30T01:20:59;4.73;;;2.90;;
1026;SDS011;502;48.746;9.214;2023-09-30T01:23:29;3.00;;;2.50;;
1026;SDS011;502;48.746;9.214;2023-09-30T01:25:56;4.30;;;2.67;;
1026;SDS011;502;48.746;9.214;2023-09-30T01:28:24;3.20;;;2.80;;
1026;SDS011;502;48.746;9.214;2023-09-30T01:30:51;4.20;;;3.00;;
1026;SDS011;502;48.746;9.214;2023-09-30T01:33:18;4.13;;;2.97;;
1026;SDS011;502;48.746;9.214;2023-09-30T01:35:45;5.47;;;3.13;;
1026;SDS011;502;48.746;9.214;2023-09-30T01:38:11;3.10;;;2.53;;
1026;SDS011;502;48.746;9.214;2023-09-30T01:40:39;5.13;;;3.30;;
1026;SDS011;502;48.746;9.214;2023-09-30T01:43:07;3.63;;;2.53;;
1026;SDS011;502;48.746;9.214;2023-09-30T01:45:34;4.93;;;3.03;;
1026;SDS011;502;48.746;9.214;2023-09-30T01:48:01;4.90;;;3.47;;
1026;SDS011;502;48.746;9.214;2023-09-30T01:50:27;4.20;;;2.97;;
1026;SDS011;502;48.746;9.214;2023-09-30T01:52:54;4.03;;;2.90;;
1026;SDS011;502;48.746;9.214;2023-09-30T01:55:21;3.00;;;2.50;;
1026;SDS011;502;48.746;9.214;2023-09-30T01:57:49;3.53;;;2.50;;
1026;SDS011;502;48.746;9.214;2023-09-30T02:00:16;3.13;;;2.10;;
1026;SDS011;502;48.746;9.214;2023-09-30T02:02:42;3.17;;;2.50;;
1026;SDS011;502;48.746;9.214;2023-09-30T02:05:09;3.90;;;2.40;;
1026;SDS011;502;48.746;9.214;2023-09-30T02:07:35;3.90;;;3.00;;
1026;SDS011;502;48.746;9.214;2023-09-30T02:10:03;5.40;;;3.47;;
1026;SDS011;502;48.746;9.214;2023-09-30T02:12:31;4.60;;;2.50;;
1026;SDS011;502;48.746;9.214;2023-09-30T02:14:59;3.80;;;3.10;;
1026;SDS011;502;48.746;9.214;2023-09-30T02:17:26;3.63;;;2.47;;
1026;SDS011;502;48.746;9.214;2023-09-30T02:19:52;4.13;;;2.87;;
1026;SDS011;502;48.746;9.214;2023-09-30T02:22:20;2.83;;;2.50;;
1026;SDS011;502;48.746;9.214;2023-09-30T02:24:46;4.43;;;2.87;;
1026;SDS011;502;48.746;9.214;2023-09-30T02:27:14;5.10;;;3.27;;
1026;SDS011;502;48.746;9.214;2023-09-30T02:29:40;2.73;;;2.37;;
1026;SDS011;502;48.746;9.214;2023-09-30T02:32:08;5.00;;;3.40;;
1026;SDS011;502;48.746;9.214;2023-09-30T02:34:35;5.73;;;3.27;;
1026;SDS011;502;48.746;9.214;2023-09-30T02:37:01;3.80;;;2.67;;
1026;SDS011;502;48.746;9.214;2023-09-30T02:39:28;4.87;;;3.20;;
1026;SDS011;502;48.746;9.214;2023-09-30T02:41:54;6.30;;;3.10;;
1026;SDS011;502;48.746;9.214;2023-09-30T02:44:22;6.20;;;3.90;;
1026;SDS011;502;48.746;9.214;2023-09-30T02:46:48;3.13;;;2.83;;
1026;SDS011;502;48.746;9.214;2023-09-30T02:49:15;4.20;;;3.00;;
1026;SDS011;502;48.746;9.214;2023-09-30T02:51:42;3.53;;;2.87;;
1026;SDS011;502;48.746;9.214;2023-09-30T02:54:09;5.33;;;4.13;;
1026;SDS011;502;48.746;9.214;2023-09-30T02:56:41;4.93;;;3.50;;
1026;SDS011;502;48.746;9.214;2023-09-30T02:59:09;3.80;;;3.00;;
1026;SDS011;502;48.746;9.214;2023-09-30T03:01:36;5.17;;;3.53;;
1026;SDS011;502;48.746;9.214;2023-09-30T03:04:03;4.20;;;3.10;;
1026;SDS011;502;48.746;9.214;2023-09-30T03:06:33;3.87;;;3.50;;
1026;SDS011;502;48.746;9.214;2023-09-30T03:09:02;4.90;;;3.80;;
1026;SDS011;502;48.746;9.214;2023-09-30T03:11:29;4.63;;;3.30;;
1026;SDS011;502;48.746;9.214;2023-09-30T03:13:56;5.57;;;3.40;;
1026;SDS011;502;48.746;9.214;2023-09-30T03:16:23;4.77;;;3.53;;
1026;SDS011;502;48.746;9.214;2023-09-30T03:18:50;6.40;;;3.73;;
1026;SDS011;502;48.746;9.214;2023-09-30T03:21:16;4.40;;;3.57;;
1026;SDS011;502;48.746;9.214;2023-09-30T03:23:44;8.20;;;3.60;;
1026;SDS011;502;48.746;9.214;2023-09-30T03:26:11;4.73;;;3.53;;
1026;SDS011;502;48.746;9.214;2023-09-30T03:28:38;5.70;;;2.90;;
1026;SDS011;502;48.746;9.214;2023-09-30T03:31:05;5.57;;;4.03;;
1026;SDS011;502;48.746;9.214;2023-09-30T03:33:32;5.37;;;3.97;;
1026;SDS011;502;48.746;9.214;2023-09-30T03:35:59;5.03;;;3.07;;
1026;SDS011;502;48.746;9.214;2023-09-30T03:38:26;5.00;;;3.60;;
1026;SDS011;502;48.746;9.214;2023-09-30T03:40:54;5.83;;;3.90;;
1026;SDS011;502;48.746;9.214;2023-09-30T03:43:22;4.13;;;3.67;;
1026;SDS011;502;48.746;9.214;2023-09-30T03:45:49;8.03;;;4.10;;
1026;SDS011;502;48.746;9.214;2023-09-30T03:48:16;5.73;;;3.10;;
1026;SDS011;502;48.746;9.214;2023-09-30T03:50:43;5.10;;;3.13;;
1026;SDS011;502;48.746;9.214;2023-09-30T03:53:10;6.00;;;3.70;;
1026;SDS011;502;48.746;9.214;2023-09-30T03:55:37;4.37;;;3.00;;
1026;SDS011;502;48.746;9.214;2023-09-30T03:58:04;4.33;;;3.57;;
1026;SDS011;502;48.746;9.214;2023-09-30T04:00:31;5.33;;;3.43;;
1026;SDS011;502;48.746;9.214;2023-09-30T04:02:58;4.60;;;3.90;;
1026;SDS011;502;48.746;9.214;2023-09-30T04:05:24;5.50;;;3.60;;
1026;SDS011;502;48.746;9.214;2023-09-30T04:07:54;3.47;;;3.17;;
1026;SDS011;502;48.746;9.214;2023-09-30T04:10:20;5.63;;;3.67;;
1026;SDS011;502;48.746;9.214;2023-09-30T04:12:48;5.30;;;3.50;;
1026;SDS011;502;48.746;9.214;2023-09-30T04:15:16;5.70;;;3.63;;
1026;SDS011;502;48.746;9.214;2023-09-30T04:17:43;4.93;;;3.40;;
1026;SDS011;502;48.746;9.214;2023-09-30T04:20:10;8.03;;;4.00;;
1026;SDS011;502;48.746;9.214;2023-09-30T04:22:41;6.90;;;4.23;;
1026;SDS011;502;48.746;9.214;2023-09-30T04:25:11;4.50;;;3.60;;
1026;SDS011;502;48.746;9.214;2023-09-30T04:27:38;5.10;;;3.77;;
1026;SDS011;502;48.746;9.214;2023-09-30T04:30:07;4.57;;;3.30;;
1026;SDS011;502;48.746;9.214;2023-09-30T04:32:37;7.37;;;3.67;;
1026;SDS011;502;48.746;9.214;2023-09-30T04:35:04;5.13;;;3.30;;
1026;SDS011;502;48.746;9.214;2023-09-30T04:37:31;4.83;;;3.30;;
1026;SDS011;502;48.746;9.214;2023-09-30T04:39:58;5.53;;;3.40;;
1026;SDS011;502;48.746;9.214;2023-09-30T04:42:24;3.73;;;2.90;;
1026;SDS011;502;48.746;9.214;2023-09-30T04:44:51;4.47;;;3.00;;
1026;SDS011;502;48.746;9.214;2023-09-30T04:47:17;6.30;;;3.90;;
1026;SDS011;502;48.746;9.214;2023-09-30T04:49:46;5.23;;;3.43;;
1026;SDS011;502;48.746;9.214;2023-09-30T04:52:12;5.87;;;3.60;;
1026;SDS011;502;48.746;9.214;2023-09-30T04:54:39;4.47;;;3.63;;
1026;SDS011;502;48.746;9.214;2023-09-30T04:57:05;4.60;;;3.00;;
1026;SDS011;502;48.746;9.214;2023-09-30T04:59:32;5.93;;;3.73;;
1026;SDS011;502;48.746;9.214;2023-09-30T05:01:59;5.63;;;4.50;;
1026;SDS011;502;48.746;9.214;2023-09-30T05:04:26;6.40;;;3.77;;
1026;SDS011;502;48.746;9.214;2023-09-30T05:06:54;4.20;;;3.80;;
1026;SDS011;502;48.746;9.214;2023-09-30T05:09:20;7.53;;;4.00;;
1026;SDS011;502;48.746;9.214;2023-09-30T05:11:47;6.23;;;4.80;;
1026;SDS011;502;48.746;9.214;2023-09-30T05:14:13;4.90;;;3.47;;
1026;SDS011;502;48.746;9.214;2023-09-30T05:16:41;5.20;;;4.00;;
1026;SDS011;502;48.746;9.214;2023-09-30T05:19:08;6.97;;;3.93;;
1026;SDS011;502;48.746;9.214;2023-09-30T05:21:35;10.90;;;3.73;;
1026;SDS011;502;48.746;9.214;2023-09-30T05:24:04;4.70;;;4.00;;
1026;SDS011;502;48.746;9.214;2023-09-30T05:26:31;4.17;;;3.50;;
1026;SDS011;502;48.746;9.214;2023-09-30T05:28:58;5.77;;;4.80;;
1026;SDS011;502;48.746;9.214;2023-09-30T05:31:25;6.40;;;3.83;;
1026;SDS011;502;48.746;9.214;2023-09-30T05:33:52;5.87;;;3.90;;
1026;SDS011;502;48.746;9.214;2023-09-30T05:36:19;4.70;;;4.00;;
1026;SDS011;502;48.746;9.214;2023-09-30T05:38:45;6.57;;;4.07;;
1026;SDS011;502;48.746;9.214;2023-09-30T05:41:15;4.67;;;3.77;;
1026;SDS011;502;48.746;9.214;2023-09-30T05:43:41;7.70;;;4.00;;
1026;SDS011;502;48.746;9.214;2023-09-30T05:46:08;7.20;;;4.37;;
1026;SDS011;502;48.746;9.214;2023-09-30T05:48:36;8.27;;;3.60;;
1026;SDS011;502;48.746;9.214;2023-09-30T05:51:04;5.53;;;3.67;;
1026;SDS011;502;48.746;9.214;2023-09-30T05:53:31;5.00;;;3.83;;
1026;SDS011;502;48.746;9.214;2023-09-30T05:55:58;4.90;;;3.90;;
1026;SDS011;502;48.746;9.214;2023-09-30T05:58:26;4.83;;;3.73;;
1026;SDS011;502;48.746;9.214;2023-09-30T06:00:52;5.70;;;4.27;;
1026;SDS011;502;48.746;9.214;2023-09-30T06:03:19;5.23;;;4.17;;
1026;SDS011;502;48.746;9.214;2023-09-30T06:05:46;5.80;;;3.43;;
1026;SDS011;502;48.746;9.214;2023-09-30T06:08:13;4.50;;;3.80;;
1026;SDS011;502;48.746;9.214;2023-09-30T06:10:40;5.30;;;3.83;;
1026;SDS011;502;48.746;9.214;2023-09-30T06:13:08;5.03;;;3.80;;
1026;SDS011;502;48.746;9.214;2023-09-30T06:15:37;6.00;;;4.43;;
1026;SDS011;502;48.746;9.214;2023-09-30T06:18:07;8.17;;;3.57;;
1026;SDS011;502;48.746;9.214;2023-09-30T06:20:34;5.40;;;4.13;;
1026;SDS011;502;48.746;9.214;2023-09-30T06:23:01;5.17;;;4.40;;
1026;SDS011;502;48.746;9.214;2023-09-30T06:25:28;4.90;;;3.60;;
1026;SDS011;502;48.746;9.214;2023-09-30T06:27:55;5.23;;;3.80;;
1026;SDS011;502;48.746;9.214;2023-09-30T06:30:22;7.10;;;3.50;;
1026;SDS011;502;48.746;9.214;2023-09-30T06:32:55;6.83;;;4.43;;
1026;SDS011;502;48.746;9.214;2023-09-30T06:35:22;5.17;;;4.00;;
1026;SDS011;502;48.746;9.214;2023-09-30T06:37:49;4.50;;;3.43;;
1026;SDS011;502;48.746;9.214;2023-09-30T06:40:16;5.00;;;3.70;;
1026;SDS011;502;48.746;9.214;2023-09-30T06:42:44;6.10;;;3.83;;
1026;SDS011;502;48.746;9.214;2023-09-30T06:45:10;5.10;;;3.40;;
1026;SDS011;502;48.746;9.214;2023-09-30T06:47:38;7.17;;;4.23;;
1026;SDS011;502;48.746;9.214;2023-09-30T06:50:09;6.50;;;4.00;;
1026;SDS011;502;48.746;9.214;2023-09-30T06:52:37;7.10;;;4.10;;
1026;SDS011;502;48.746;9.214;2023-09-30T06:55:05;4.43;;;3.67;;
1026;SDS011;502;48.746;9.214;2023-09-30T06:57:33;5.57;;;4.50;;
1026;SDS011;502;48.746;9.214;2023-09-30T07:00:00;4.90;;;4.20;;
1026;SDS011;502;48.746;9.214;2023-09-30T07:02:29;5.13;;;4.03;;
1026;SDS011;502;48.746;9.214;2023-09-30T07:04:56;6.47;;;4.60;;
1026;SDS011;502;48.746;9.214;2023-09-30T07:07:24;6.40;;;4.70;;
1026;SDS011;502;48.746;9.214;2023-09-30T07:09:50;6.73;;;4.17;;
1026;SDS011;502;48.746;9.214;2023-09-30T07:12:17;6.13;;;4.40;;
1026;SDS011;502;48.746;9.214;2023-09-30T07:14:43;6.43;;;4.43;;
1026;SDS011;502;48.746;9.214;2023-09-30T07:17:10;8.30;;;4.70;;
1026;SDS011;502;48.746;9.214;2023-09-30T07:19:37;7.13;;;4.20;;
1026;SDS011;502;48.746;9.214;2023-09-30T07:22:03;6.07;;;4.87;;
1026;SDS011;502;48.746;9.214;2023-09-30T07:24:31;5.97;;;4.80;;
1026;SDS011;502;48.746;9.214;2023-09-30T07:26:58;6.33;;;5.60;;
1026;SDS011;502;48.746;9.214;2023-09-30T07:29:25;6.43;;;4.33;;
1026;SDS011;502;48.746;9.214;2023-09-30T07:31:51;5.67;;;4.30;;
1026;SDS011;502;48.746;9.214;2023-09-30T07:34:18;10.07;;;3.90;;
1026;SDS011;502;48.746;9.214;2023-09-30T07:36:45;6.10;;;4.30;;
1026;SDS011;502;48.746;9.214;2023-09-30T07:39:12;5.23;;;4.23;;
1026;SDS011;502;48.746;9.214;2023-09-30T07:41:40;6.57;;;4.07;;
1026;SDS011;502;48.746;9.214;2023-09-30T07:44:06;6.97;;;4.20;;
1026;SDS011;502;48.746;9.214;2023-09-30T07:46:34;5.43;;;3.73;;
1026;SDS011;502;48.746;9.214;2023-09-30T07:49:01;4.70;;;4.03;;
1026;SDS011;502;48.746;9.214;2023-09-30T07:51:28;5.10;;;4.00;;
1026;SDS011;502;48.746;9.214;2023-09-30T07:53:54;7.83;;;5.00;;
1026;SDS011;502;48.746;9.214;2023-09-30T07:56:22;8.23;;;5.60;;
1026;SDS011;502;48.746;9.214;2023-09-30T07:58:50;5.63;;;4.70;;
1026;SDS011;502;48.746;9.214;2023-09-30T08:01:17;8.63;;;4.20;;
1026;SDS011;502;48.746;9.214;2023-09-30T08:03:43;5.30;;;4.80;;
1026;SDS011;502;48.746;9.214;2023-09-30T08:06:10;7.43;;;4.60;;
1026;SDS011;502;48.746;9.214;2023-09-30T08:08:37;5.57;;;4.40;;
1026;SDS011;502;48.746;9.214;2023-09-30T08:11:03;6.90;;;4.77;;
1026;SDS011;502;48.746;9.214;2023-09-30T08:13:30;6.17;;;4.13;;
1026;SDS011;502;48.746;9.214;2023-09-30T08:15:59;6.10;;;4.87;;
1026;SDS011;502;48.746;9.214;2023-09-30T08:18:26;6.37;;;5.13;;
1026;SDS011;502;48.746;9.214;2023-09-30T08:20:52;6.73;;;5.00;;
1026;SDS011;502;48.746;9.214;2023-09-30T08:23:19;5.00;;;4.30;;
1026;SDS011;502;48.746;9.214;2023-09-30T08:25:46;6.37;;;5.27;;
1026;SDS011;502;48.746;9.214;2023-09-30T08:28:12;7.17;;;4.50;;
1026;SDS011;502;48.746;9.214;2023-09-30T08:30:39;6.00;;;4.67;;
1026;SDS011;502;48.746;9.214;2023-09-30T08:33:07;10.60;;;4.70;;
1026;SDS011;502;48.746;9.214;2023-09-30T08:35:35;6.13;;;4.97;;
1026;SDS011;502;48.746;9.214;2023-09-30T08:38:02;7.13;;;4.90;;
1026;SDS011;502;48.746;9.214;2023-09-30T08:40:29;6.50;;;5.10;;
1026;SDS011;502;48.746;9.214;2023-09-30T08:42:56;7.33;;;5.43;;
1026;SDS011;502;48.746;9.214;2023-09-30T08:45:22;6.90;;;5.33;;
1026;SDS011;502;48.746;9.214;2023-09-30T08:47:49;7.70;;;5.53;;
1026;SDS011;502;48.746;9.214;2023-09-30T08:50:18;7.03;;;4.80;;
1026;SDS011;502;48.746;9.214;2023-09-30T08:52:44;6.20;;;5.10;;
1026;SDS011;502;48.746;9.214;2023-09-30T08:55:11;6.37;;;4.90;;
1026;SDS011;502;48.746;9.214;2023-09-30T08:57:39;6.97;;;5.60;;
1026;SDS011;502;48.746;9.214;2023-09-30T09:00:07;6.23;;;5.60;;
1026;SDS011;502;48.746;9.214;2023-09-30T09:02:36;7.00;;;4.90;;
1026;SDS011;502;48.746;9.214;2023-09-30T09:05:03;6.00;;;5.23;;
1026;SDS011;502;48.746;9.214;2023-09-30T09:07:32;6.40;;;5.20;;
1026;SDS011;502;48.746;9.214;2023-09-30T09:10:03;6.77;;;4.53;;
1026;SDS011;502;48.746;9.214;2023-09-30T09:12:31;7.80;;;5.33;;
1026;SDS011;502;48.746;9.214;2023-09-30T09:14:59;6.33;;;5.03;;
1026;SDS011;502;48.746;9.214;2023-09-30T09:17:29;5.37;;;4.73;;
1026;SDS011;502;48.746;9.214;2023-09-30T09:20:06;7.80;;;4.97;;
1026;SDS011;502;48.746;9.214;2023-09-30T09:22:39;6.27;;;5.07;;
1026;SDS011;502;48.746;9.214;2023-09-30T09:25:06;6.73;;;5.63;;
1026;SDS011;502;48.746;9.214;2023-09-30T09:27:34;5.37;;;4.10;;
1026;SDS011;502;48.746;9.214;2023-09-30T09:30:13;5.17;;;4.33;;
1026;SDS011;502;48.746;9.214;2023-09-30T09:32:51;6.53;;;4.90;;
1026;SDS011;502;48.746;9.214;2023-09-30T09:35:19;6.73;;;5.33;;
1026;SDS011;502;48.746;9.214;2023-09-30T09:37:55;6.23;;;4.83;;
1026;SDS011;502;48.746;9.214;2023-09-30T09:40:22;7.63;;;5.40;;
1026;SDS011;502;48.746;9.214;2023-09-30T09:42:50;6.17;;;5.00;;
1026;SDS011;502;48.746;9.214;2023-09-30T09:45:19;7.87;;;5.03;;
1026;SDS011;502;48.746;9.214;2023-09-30T09:47:47;8.00;;;6.30;;
1026;SDS011;502;48.746;9.214;2023-09-30T09:50:14;7.30;;;5.97;;
1026;SDS011;502;48.746;9.214;2023-09-30T09:52:41;6.90;;;5.10;;
1026;SDS011;502;48.746;9.214;2023-09-30T09:55:11;7.30;;;4.73;;
1026;SDS011;502;48.746;9.214;2023-09-30T09:57:37;4.93;;;3.97;;
1026;SDS011;502;48.746;9.214;2023-09-30T10:00:05;6.03;;;4.73;;
1026;SDS011;502;48.746;9.214;2023-09-30T10:02:39;4.80;;;4.30;;
1026;SDS011;502;48.746;9.214;2023-09-30T10:05:06;5.37;;;4.50;;
1026;SDS011;502;48.746;9.214;2023-09-30T10:07:34;5.67;;;4.47;;
1026;SDS011;502;48.746;9.214;2023-09-30T10:10:02;6.67;;;5.53;;
1026;SDS011;502;48.746;9.214;2023-09-30T10:12:37;8.00;;;4.60;;
1026;SDS011;502;48.746;9.214;2023-09-30T10:18:06;7.67;;;6.17;;
1026;SDS011;502;48.746;9.214;2023-09-30T10:20:35;5.77;;;4.80;;
1026;SDS011;502;48.746;9.214;2023-09-30T10:23:22;6.63;;;5.17;;
1026;SDS011;502;48.746;9.214;2023-09-30T10:25:54;5.40;;;4.53;;
1026;SDS011;502;48.746;9.214;2023-09-30T10:28:39;11.30;;;10.20;;
1026;SDS011;502;48.746;9.214;2023-09-30T10:31:10;6.40;;;4.80;;
1026;SDS011;502;48.746;9.214;2023-09-30T10:36:38;6.53;;;4.60;;
1026;SDS011;502;48.746;9.214;2023-09-30T10:39:06;5.57;;;4.17;;
1026;SDS011;502;48.746;9.214;2023-09-30T10:44:34;5.23;;;4.40;;
1026;SDS011;502;48.746;9.214;2023-09-30T10:53:07;6.47;;;4.80;;
1026;SDS011;502;48.746;9.214;2023-09-30T10:55:35;5.30;;;4.40;;
1026;SDS011;502;48.746;9.214;2023-09-30T10:58:01;5.67;;;4.13;;
1026;SDS011;502;48.746;9.214;2023-09-30T11:00:30;6.60;;;4.83;;
1026;SDS011;502;48.746;9.214;2023-09-30T11:02:56;8.57;;;4.97;;
1026;SDS011;502;48.746;9.214;2023-09-30T11:05:23;9.13;;;4.80;;
1026;SDS011;502;48.746;9.214;2023-09-30T11:07:50;7.63;;;4.43;;
1026;SDS011;502;48.746;9.214;2023-09-30T11:10:17;5.97;;;4.03;;
1026;SDS011;502;48.746;9.214;2023-09-30T11:12:54;5.10;;;4.00;;
1026;SDS011;502;48.746;9.214;2023-09-30T11:15:21;4.67;;;3.80;;
1026;SDS011;502;48.746;9.214;2023-09-30T11:17:49;9.23;;;5.07;;
1026;SDS011;502;48.746;9.214;2023-09-30T11:20:16;6.53;;;4.70;;
1026;SDS011;502;48.746;9.214;2023-09-30T11:22:43;6.33;;;4.83;;
1026;SDS011;502;48.746;9.214;2023-09-30T11:25:14;7.83;;;4.90;;
1026;SDS011;502;48.746;9.214;2023-09-30T11:27:42;5.67;;;4.60;;
1026;SDS011;502;48.746;9.214;2023-09-30T11:30:10;6.83;;;4.80;;
1026;SDS011;502;48.746;9.214;2023-09-30T11:32:37;5.83;;;4.60;;
1026;SDS011;502;48.746;9.214;2023-09-30T11:35:06;5.60;;;4.40;;
1026;SDS011;502;48.746;9.214;2023-09-30T11:37:34;5.63;;;4.40;;
1026;SDS011;502;48.746;9.214;2023-09-30T11:40:09;5.80;;;4.60;;
1026;SDS011;502;48.746;9.214;2023-09-30T11:42:36;6.23;;;4.40;;
1026;SDS011;502;48.746;9.214;2023-09-30T11:45:17;6.60;;;4.57;;
1026;SDS011;502;48.746;9.214;2023-09-30T11:47:44;10.67;;;5.40;;
1026;SDS011;502;48.746;9.214;2023-09-30T11:50:12;8.10;;;5.17;;
1026;SDS011;502;48.746;9.214;2023-09-30T11:52:39;5.73;;;4.23;;
1026;SDS011;502;48.746;9.214;2023-09-30T11:55:11;6.93;;;4.23;;
1026;SDS011;502;48.746;9.214;2023-09-30T11:57:37;8.77;;;5.77;;
1026;SDS011;502;48.746;9.214;2023-09-30T12:00:05;5.93;;;4.67;;
1026;SDS011;502;48.746;9.214;2023-09-30T12:02:38;7.13;;;4.80;;
1026;SDS011;502;48.746;9.214;2023-09-30T12:05:06;6.87;;;4.30;;
1026;SDS011;502;48.746;9.214;2023-09-30T12:07:38;5.37;;;4.10;;
1026;SDS011;502;48.746;9.214;2023-09-30T12:10:07;6.93;;;4.80;;
1026;SDS011;502;48.746;9.214;2023-09-30T12:12:33;9.37;;;5.70;;
1026;SDS011;502;48.746;9.214;2023-09-30T12:15:00;8.53;;;5.03;;
1026;SDS011;502;48.746;9.214;2023-09-30T12:17:28;8.73;;;4.67;;
1026;SDS011;502;48.746;9.214;2023-09-30T12:19:55;6.17;;;4.17;;
1026;SDS011;502;48.746;9.214;2023-09-30T12:22:21;4.77;;;4.00;;
1026;SDS011;502;48.746;9.214;2023-09-30T12:24:49;5.20;;;4.70;;
1026;SDS011;502;48.746;9.214;2023-09-30T12:27:17;6.70;;;4.83;;
1026;SDS011;502;48.746;9.214;2023-09-30T12:29:43;6.23;;;4.70;;
1026;SDS011;502;48.746;9.214;2023-09-30T12:32:11;7.50;;;4.50;;
1026;SDS011;502;48.746;9.214;2023-09-30T12:34:37;7.90;;;5.03;;
1026;SDS011;502;48.746;9.214;2023-09-30T12:37:04;6.73;;;4.50;;
1026;SDS011;502;48.746;9.214;2023-09-30T12:39:31;5.33;;;4.07;;
1026;SDS011;502;48.746;9.214;2023-09-30T12:41:59;7.00;;;4.50;;
1026;SDS011;502;48.746;9.214;2023-09-30T12:44:26;7.10;;;4.50;;
1026;SDS011;502;48.746;9.214;2023-09-30T12:46:52;6.70;;;4.90;;
1026;SDS011;502;48.746;9.214;2023-09-30T12:49:20;6.70;;;4.33;;
1026;SDS011;502;48.746;9.214;2023-09-30T12:51:46;5.83;;;4.50;;
1026;SDS011;502;48.746;9.214;2023-09-30T12:54:13;7.40;;;5.40;;
1026;SDS011;502;48.746;9.214;2023-09-30T12:56:43;6.90;;;5.23;;
1026;SDS011;502;48.746;9.214;2023-09-30T12:59:11;5.93;;;4.57;;
1026;SDS011;502;48.746;9.214;2023-09-30T13:01:37;6.50;;;4.70;;
1026;SDS011;502;48.746;9.214;2023-09-30T13:04:05;8.20;;;4.93;;
1026;SDS011;502;48.746;9.214;2023-09-30T13:06:33;6.40;;;4.70;;
1026;SDS011;502;48.746;9.214;2023-09-30T13:09:00;8.00;;;4.53;;
1026;SDS011;502;48.746;9.214;2023-09-30T13:11:28;5.67;;;4.97;;
1026;SDS011;502;48.746;9.214;2023-09-30T13:13:55;8.10;;;4.80;;
1026;SDS011;502;48.746;9.214;2023-09-30T13:16:23;6.07;;;4.50;;
1026;SDS011;502;48.746;9.214;2023-09-30T13:18:50;6.70;;;4.67;;
1026;SDS011;502;48.746;9.214;2023-09-30T13:21:17;8.07;;;4.80;;
1026;SDS011;502;48.746;9.214;2023-09-30T13:23:44;5.90;;;5.10;;
1026;SDS011;502;48.746;9.214;2023-09-30T13:26:10;7.10;;;4.80;;
1026;SDS011;502;48.746;9.214;2023-09-30T13:28:37;6.90;;;4.77;;
1026;SDS011;502;48.746;9.214;2023-09-30T13:31:04;6.33;;;4.60;;
1026;SDS011;502;48.746;9.214;2023-09-30T13:33:32;6.40;;;4.97;;
1026;SDS011;502;48.746;9.214;2023-09-30T13:35:59;6.67;;;4.70;;
1026;SDS011;502;48.746;9.214;2023-09-30T13:38:27;5.67;;;4.57;;
1026;SDS011;502;48.746;9.214;2023-09-30T13:40:54;5.60;;;4.00;;
1026;SDS011;502;48.746;9.214;2023-09-30T13:43:20;6.67;;;4.60;;
1026;SDS011;502;48.746;9.214;2023-09-30T13:45:48;6.83;;;4.00;;
1026;SDS011;502;48.746;9.214;2023-09-30T13:48:15;5.87;;;4.00;;
1026;SDS011;502;48.746;9.214;2023-09-30T13:50:43;5.90;;;4.00;;
1026;SDS011;502;48.746;9.214;2023-09-30T13:53:10;7.20;;;4.40;;
1026;SDS011;502;48.746;9.214;2023-09-30T13:55:37;7.60;;;4.50;;
1026;SDS011;502;48.746;9.214;2023-09-30T13:58:05;5.77;;;4.13;;
1026;SDS011;502;48.746;9.214;2023-09-30T14:00:31;5.00;;;4.20;;
1026;SDS011;502;48.746;9.214;2023-09-30T14:02:59;8.23;;;4.70;;
1026;SDS011;502;48.746;9.214;2023-09-30T14:05:26;8.60;;;4.40;;
1026;SDS011;502;48.746;9.214;2023-09-30T14:07:54;6.40;;;4.63;;
1026;SDS011;502;48.746;9.214;2023-09-30T14:10:20;12.10;;;4.70;;
1026;SDS011;502;48.746;9.214;2023-09-30T14:12:47;5.83;;;4.43;;
1026;SDS011;502;48.746;9.214;2023-09-30T14:15:14;6.50;;;4.90;;
1026;SDS011;502;48.746;9.214;2023-09-30T14:17:40;8.20;;;4.60;;
1026;SDS011;502;48.746;9.214;2023-09-30T14:20:10;7.70;;;5.57;;
1026;SDS011;502;48.746;9.214;2023-09-30T14:22:37;8.60;;;4.40;;
1026;SDS011;502;48.746;9.214;2023-09-30T14:25:05;5.57;;;4.73;;
1026;SDS011;502;48.746;9.214;2023-09-30T14:27:32;6.57;;;4.83;;
1026;SDS011;502;48.746;9.214;2023-09-30T14:29:59;6.70;;;4.97;;
1026;SDS011;502;48.746;9.214;2023-09-30T14:32:26;8.13;;;4.60;;
1026;SDS011;502;48.746;9.214;2023-09-30T14:34:55;6.13;;;4.40;;
1026;SDS011;502;48.746;9.214;2023-09-30T14:37:23;5.63;;;4.47;;
1026;SDS011;502;48.746;9.214;2023-09-30T14:39:49;6.93;;;4.30;;
1026;SDS011;502;48.746;9.214;2023-09-30T14:42:17;5.87;;;4.40;;
1026;SDS011;502;48.746;9.214;2023-09-30T14:44:44;8.93;;;4.47;;
1026;SDS011;502;48.746;9.214;2023-09-30T14:47:11;7.90;;;4.90;;
1026;SDS011;502;48.746;9.214;2023-09-30T14:49:37;5.60;;;4.30;;
1026;SDS011;502;48.746;9.214;2023-09-30T14:52:04;6.77;;;4.77;;
1026;SDS011;502;48.746;9.214;2023-09-30T14:54:31;5.30;;;4.50;;
1026;SDS011;502;48.746;9.214;2023-09-30T14:56:58;5.73;;;4.50;;
1026;SDS011;502;48.746;9.214;2023-09-30T14:59:26;5.93;;;4.50;;
1026;SDS011;502;48.746;9.214;2023-09-30T15:01:52;7.33;;;4.60;;
1026;SDS011;502;48.746;9.214;2023-09-30T15:04:19;6.23;;;4.50;;
1026;SDS011;502;48.746;9.214;2023-09-30T15:06:45;7.30;;;5.20;;
1026;SDS011;502;48.746;9.214;2023-09-30T15:09:12;5.50;;;4.50;;
1026;SDS011;502;48.746;9.214;2023-09-30T15:11:39;5.47;;;4.40;;
1026;SDS011;502;48.746;9.214;2023-09-30T15:14:05;7.33;;;4.60;;
1026;SDS011;502;48.746;9.214;2023-09-30T15:16:36;5.57;;;4.20;;
1026;SDS011;502;48.746;9.214;2023-09-30T15:19:03;5.00;;;4.50;;
1026;SDS011;502;48.746;9.214;2023-09-30T15:21:30;7.70;;;5.50;;
1026;SDS011;502;48.746;9.214;2023-09-30T15:23:56;6.67;;;4.20;;
1026;SDS011;502;48.746;9.214;2023-09-30T15:26:24;8.50;;;4.40;;
1026;SDS011;502;48.746;9.214;2023-09-30T15:28:52;7.13;;;5.00;;
1026;SDS011;502;48.746;9.214;2023-09-30T15:31:18;7.00;;;4.60;;
1026;SDS011;502;48.746;9.214;2023-09-30T15:33:46;7.97;;;4.47;;
1026;SDS011;502;48.746;9.214;2023-09-30T15:36:13;5.73;;;4.30;;
1026;SDS011;502;48.746;9.214;2023-09-30T15:38:42;6.17;;;4.73;;
1026;SDS011;502;48.746;9.214;2023-09-30T15:41:08;7.90;;;5.17;;
1026;SDS011;502;48.746;9.214;2023-09-30T15:43:38;6.97;;;4.50;;
1026;SDS011;502;48.746;9.214;2023-09-30T15:46:05;6.20;;;4.60;;
1026;SDS011;502;48.746;9.214;2023-09-30T15:48:34;5.90;;;4.57;;